Canefield Airport

Cloudy
28oC (82oF)

Cloudy


Winds: South south easterly @ 01kt / 02km/h

Humidity: 81%

Barometric Pressure: 1015 mb

Accumulated Rainfall for July: 112.1 mm

Updated: 8:00 local time (12:00 UTC)

Douglas-Charles Airport

Cloudy with adjacent showers
28oC (82oF)

Cloudy with adjacent showers


Winds: Easterly @ 03kts / 06km/h

Humidity: 86%

Barometric Pressure: 1017 mb

Accumulated Rainfall for July: 113.1 mm

Updated: 8:00 local time (12:00 UTC)

Satellite Imagery

Satellite Imagery
Click image for larger view. (Source: National Hurricane Center).

Aviation Routine Report (METAR)

Douglas-Charles: METAR TDPD 221200Z 10003KT 9999 SCT015TCU FEW///CB 28/26 Q1017=
Canefield: METAR TDCF 221200Z 15001KT 9999 BKN015 FEW///CB 28/24 Q101=